sensor_id;sensor_type;location;lat;lon;timestamp;P1;durP1;ratioP1;P2;durP2;ratioP2
71413;SDS011;59226;53.212;5.728;2023-02-23T00:01:58;16.07;;;9.03;;
71413;SDS011;59226;53.212;5.728;2023-02-23T00:04:30;25.48;;;8.27;;
71413;SDS011;59226;53.212;5.728;2023-02-23T00:06:55;15.60;;;6.70;;
71413;SDS011;59226;53.212;5.728;2023-02-23T00:09:20;19.63;;;7.80;;
71413;SDS011;59226;53.212;5.728;2023-02-23T00:11:49;21.13;;;7.78;;
71413;SDS011;59226;53.212;5.728;2023-02-23T00:14:14;17.52;;;4.88;;
71413;SDS011;59226;53.212;5.728;2023-02-23T00:16:39;20.93;;;8.67;;
71413;SDS011;59226;53.212;5.728;2023-02-23T00:19:09;24.95;;;7.10;;
71413;SDS011;59226;53.212;5.728;2023-02-23T00:21:35;16.87;;;6.60;;
71413;SDS011;59226;53.212;5.728;2023-02-23T00:24:02;26.58;;;8.35;;
71413;SDS011;59226;53.212;5.728;2023-02-23T00:26:28;22.80;;;8.80;;
71413;SDS011;59226;53.212;5.728;2023-02-23T00:28:55;27.00;;;9.07;;
71413;SDS011;59226;53.212;5.728;2023-02-23T00:31:21;24.13;;;8.80;;
71413;SDS011;59226;53.212;5.728;2023-02-23T00:33:49;17.23;;;6.30;;
71413;SDS011;59226;53.212;5.728;2023-02-23T00:36:17;19.70;;;6.82;;
71413;SDS011;59226;53.212;5.728;2023-02-23T00:38:42;15.23;;;6.23;;
71413;SDS011;59226;53.212;5.728;2023-02-23T00:41:10;17.63;;;7.25;;
71413;SDS011;59226;53.212;5.728;2023-02-23T00:43:37;26.77;;;9.27;;
71413;SDS011;59226;53.212;5.728;2023-02-23T00:46:02;27.02;;;7.43;;
71413;SDS011;59226;53.212;5.728;2023-02-23T00:48:30;22.23;;;8.17;;
71413;SDS011;59226;53.212;5.728;2023-02-23T00:51:01;22.02;;;7.60;;
71413;SDS011;59226;53.212;5.728;2023-02-23T00:53:26;19.52;;;7.07;;
71413;SDS011;59226;53.212;5.728;2023-02-23T00:55:52;21.13;;;8.63;;
71413;SDS011;59226;53.212;5.728;2023-02-23T00:58:18;17.60;;;6.28;;
71413;SDS011;59226;53.212;5.728;2023-02-23T01:00:43;19.07;;;6.87;;
71413;SDS011;59226;53.212;5.728;2023-02-23T01:03:08;21.87;;;8.43;;
71413;SDS011;59226;53.212;5.728;2023-02-23T01:05:34;14.07;;;6.37;;
71413;SDS011;59226;53.212;5.728;2023-02-23T01:07:59;27.53;;;8.07;;
71413;SDS011;59226;53.212;5.728;2023-02-23T01:10:24;24.97;;;9.63;;
71413;SDS011;59226;53.212;5.728;2023-02-23T01:12:50;21.03;;;6.77;;
71413;SDS011;59226;53.212;5.728;2023-02-23T01:15:16;14.02;;;5.15;;
71413;SDS011;59226;53.212;5.728;2023-02-23T01:17:41;15.77;;;5.77;;
71413;SDS011;59226;53.212;5.728;2023-02-23T01:20:07;24.23;;;9.57;;
71413;SDS011;59226;53.212;5.728;2023-02-23T01:22:39;18.38;;;7.57;;
71413;SDS011;59226;53.212;5.728;2023-02-23T01:25:06;14.87;;;5.67;;
71413;SDS011;59226;53.212;5.728;2023-02-23T01:27:31;17.00;;;6.85;;
71413;SDS011;59226;53.212;5.728;2023-02-23T01:29:57;18.40;;;6.97;;
71413;SDS011;59226;53.212;5.728;2023-02-23T01:32:23;31.47;;;8.20;;
71413;SDS011;59226;53.212;5.728;2023-02-23T01:34:48;16.33;;;4.80;;
71413;SDS011;59226;53.212;5.728;2023-02-23T01:37:13;24.80;;;6.43;;
71413;SDS011;59226;53.212;5.728;2023-02-23T01:39:38;20.27;;;7.10;;
71413;SDS011;59226;53.212;5.728;2023-02-23T01:42:05;14.30;;;5.73;;
71413;SDS011;59226;53.212;5.728;2023-02-23T01:46:55;18.53;;;5.63;;
71413;SDS011;59226;53.212;5.728;2023-02-23T01:49:22;20.77;;;6.23;;
71413;SDS011;59226;53.212;5.728;2023-02-23T01:52:03;12.98;;;6.30;;
71413;SDS011;59226;53.212;5.728;2023-02-23T01:54:31;15.70;;;6.68;;
71413;SDS011;59226;53.212;5.728;2023-02-23T01:56:58;15.80;;;6.43;;
71413;SDS011;59226;53.212;5.728;2023-02-23T01:59:27;14.82;;;6.07;;
71413;SDS011;59226;53.212;5.728;2023-02-23T02:01:54;19.90;;;6.67;;
71413;SDS011;59226;53.212;5.728;2023-02-23T02:04:19;18.08;;;7.57;;
71413;SDS011;59226;53.212;5.728;2023-02-23T02:06:45;17.85;;;6.13;;
71413;SDS011;59226;53.212;5.728;2023-02-23T02:09:14;13.63;;;5.30;;
71413;SDS011;59226;53.212;5.728;2023-02-23T02:11:43;15.75;;;5.55;;
71413;SDS011;59226;53.212;5.728;2023-02-23T02:14:23;18.10;;;6.18;;
71413;SDS011;59226;53.212;5.728;2023-02-23T02:35:19;15.93;;;5.17;;
71413;SDS011;59226;53.212;5.728;2023-02-23T02:37:50;9.98;;;3.90;;
71413;SDS011;59226;53.212;5.728;2023-02-23T02:45:39;20.65;;;6.07;;
71413;SDS011;59226;53.212;5.728;2023-02-23T02:53:07;12.13;;;4.95;;
71413;SDS011;59226;53.212;5.728;2023-02-23T02:55:34;10.68;;;3.97;;
71413;SDS011;59226;53.212;5.728;2023-02-23T02:58:01;7.43;;;4.65;;
71413;SDS011;59226;53.212;5.728;2023-02-23T03:00:41;13.43;;;5.37;;
71413;SDS011;59226;53.212;5.728;2023-02-23T03:06:21;11.02;;;5.22;;
71413;SDS011;59226;53.212;5.728;2023-02-23T03:09:14;13.35;;;4.60;;
71413;SDS011;59226;53.212;5.728;2023-02-23T03:12:05;9.82;;;4.45;;
71413;SDS011;59226;53.212;5.728;2023-02-23T03:15:00;9.40;;;5.00;;
71413;SDS011;59226;53.212;5.728;2023-02-23T03:17:47;15.90;;;5.93;;
71413;SDS011;59226;53.212;5.728;2023-02-23T03:26:13;10.13;;;4.00;;
71413;SDS011;59226;53.212;5.728;2023-02-23T03:34:53;10.15;;;4.65;;
71413;SDS011;59226;53.212;5.728;2023-02-23T03:37:43;11.70;;;4.18;;
71413;SDS011;59226;53.212;5.728;2023-02-23T03:40:35;7.90;;;3.70;;
71413;SDS011;59226;53.212;5.728;2023-02-23T03:43:28;12.33;;;4.93;;
71413;SDS011;59226;53.212;5.728;2023-02-23T03:46:14;16.30;;;6.80;;
71413;SDS011;59226;53.212;5.728;2023-02-23T03:48:59;14.90;;;6.72;;
71413;SDS011;59226;53.212;5.728;2023-02-23T03:51:45;13.90;;;4.88;;
71413;SDS011;59226;53.212;5.728;2023-02-23T03:54:32;17.20;;;5.63;;
71413;SDS011;59226;53.212;5.728;2023-02-23T03:57:17;11.17;;;4.63;;
71413;SDS011;59226;53.212;5.728;2023-02-23T04:00:03;8.55;;;4.82;;
71413;SDS011;59226;53.212;5.728;2023-02-23T04:02:48;14.13;;;5.70;;
71413;SDS011;59226;53.212;5.728;2023-02-23T04:05:34;12.10;;;5.70;;
71413;SDS011;59226;53.212;5.728;2023-02-23T04:08:19;11.73;;;4.63;;
71413;SDS011;59226;53.212;5.728;2023-02-23T04:11:11;17.30;;;4.83;;
71413;SDS011;59226;53.212;5.728;2023-02-23T04:13:57;11.52;;;4.70;;
71413;SDS011;59226;53.212;5.728;2023-02-23T04:16:24;11.00;;;5.60;;
71413;SDS011;59226;53.212;5.728;2023-02-23T04:18:49;19.70;;;7.17;;
71413;SDS011;59226;53.212;5.728;2023-02-23T04:21:14;8.93;;;4.60;;
71413;SDS011;59226;53.212;5.728;2023-02-23T04:23:39;12.37;;;5.60;;
71413;SDS011;59226;53.212;5.728;2023-02-23T04:26:05;7.57;;;3.58;;
71413;SDS011;59226;53.212;5.728;2023-02-23T04:28:30;12.90;;;5.93;;
71413;SDS011;59226;53.212;5.728;2023-02-23T04:30:56;15.80;;;5.17;;
71413;SDS011;59226;53.212;5.728;2023-02-23T04:33:21;13.67;;;4.80;;
71413;SDS011;59226;53.212;5.728;2023-02-23T04:35:49;13.35;;;7.22;;
71413;SDS011;59226;53.212;5.728;2023-02-23T04:38:15;17.25;;;5.55;;
71413;SDS011;59226;53.212;5.728;2023-02-23T04:40:41;12.77;;;4.77;;
71413;SDS011;59226;53.212;5.728;2023-02-23T04:43:06;14.90;;;6.20;;
71413;SDS011;59226;53.212;5.728;2023-02-23T04:45:32;15.33;;;7.00;;
71413;SDS011;59226;53.212;5.728;2023-02-23T04:47:57;10.77;;;4.20;;
71413;SDS011;59226;53.212;5.728;2023-02-23T04:50:22;15.43;;;6.43;;
71413;SDS011;59226;53.212;5.728;2023-02-23T04:52:48;12.60;;;5.37;;
71413;SDS011;59226;53.212;5.728;2023-02-23T04:55:18;13.43;;;5.43;;
71413;SDS011;59226;53.212;5.728;2023-02-23T04:57:44;15.18;;;4.47;;
71413;SDS011;59226;53.212;5.728;2023-02-23T05:00:09;9.23;;;4.90;;
71413;SDS011;59226;53.212;5.728;2023-02-23T05:02:35;13.57;;;5.93;;
71413;SDS011;59226;53.212;5.728;2023-02-23T05:05:00;11.63;;;5.47;;
71413;SDS011;59226;53.212;5.728;2023-02-23T05:07:25;25.60;;;5.47;;
71413;SDS011;59226;53.212;5.728;2023-02-23T05:09:51;13.23;;;5.47;;
71413;SDS011;59226;53.212;5.728;2023-02-23T05:12:16;9.87;;;5.00;;
71413;SDS011;59226;53.212;5.728;2023-02-23T05:14:41;11.40;;;5.80;;
71413;SDS011;59226;53.212;5.728;2023-02-23T05:17:06;13.90;;;5.27;;
71413;SDS011;59226;53.212;5.728;2023-02-23T05:19:32;13.40;;;4.33;;
71413;SDS011;59226;53.212;5.728;2023-02-23T05:21:57;9.63;;;4.03;;
71413;SDS011;59226;53.212;5.728;2023-02-23T05:24:22;14.03;;;5.40;;
71413;SDS011;59226;53.212;5.728;2023-02-23T05:26:48;14.10;;;6.33;;
71413;SDS011;59226;53.212;5.728;2023-02-23T05:29:13;13.27;;;5.80;;
71413;SDS011;59226;53.212;5.728;2023-02-23T05:31:39;14.30;;;6.60;;
71413;SDS011;59226;53.212;5.728;2023-02-23T05:34:04;12.53;;;5.63;;
71413;SDS011;59226;53.212;5.728;2023-02-23T05:36:29;12.83;;;6.40;;
71413;SDS011;59226;53.212;5.728;2023-02-23T05:38:54;12.10;;;4.77;;
71413;SDS011;59226;53.212;5.728;2023-02-23T05:41:20;11.97;;;5.23;;
71413;SDS011;59226;53.212;5.728;2023-02-23T05:43:46;13.10;;;5.47;;
71413;SDS011;59226;53.212;5.728;2023-02-23T05:46:13;14.73;;;5.72;;
71413;SDS011;59226;53.212;5.728;2023-02-23T05:48:39;17.60;;;6.53;;
71413;SDS011;59226;53.212;5.728;2023-02-23T05:51:06;15.57;;;5.47;;
71413;SDS011;59226;53.212;5.728;2023-02-23T05:53:32;12.93;;;3.73;;
71413;SDS011;59226;53.212;5.728;2023-02-23T05:55:57;13.93;;;5.70;;
71413;SDS011;59226;53.212;5.728;2023-02-23T05:58:22;11.90;;;6.13;;
71413;SDS011;59226;53.212;5.728;2023-02-23T06:00:47;18.35;;;6.30;;
71413;SDS011;59226;53.212;5.728;2023-02-23T06:03:13;13.90;;;4.93;;
71413;SDS011;59226;53.212;5.728;2023-02-23T06:05:39;12.30;;;5.17;;
71413;SDS011;59226;53.212;5.728;2023-02-23T06:08:04;13.93;;;6.53;;
71413;SDS011;59226;53.212;5.728;2023-02-23T06:10:29;10.40;;;5.20;;
71413;SDS011;59226;53.212;5.728;2023-02-23T06:12:55;15.00;;;5.40;;
71413;SDS011;59226;53.212;5.728;2023-02-23T06:15:20;13.83;;;7.60;;
71413;SDS011;59226;53.212;5.728;2023-02-23T06:17:45;11.57;;;5.40;;
71413;SDS011;59226;53.212;5.728;2023-02-23T06:20:10;11.20;;;4.93;;
71413;SDS011;59226;53.212;5.728;2023-02-23T06:22:36;18.88;;;5.82;;
71413;SDS011;59226;53.212;5.728;2023-02-23T06:25:01;14.10;;;5.70;;
71413;SDS011;59226;53.212;5.728;2023-02-23T06:27:30;9.87;;;4.40;;
71413;SDS011;59226;53.212;5.728;2023-02-23T06:29:55;15.25;;;6.30;;
71413;SDS011;59226;53.212;5.728;2023-02-23T06:32:20;8.73;;;4.03;;
71413;SDS011;59226;53.212;5.728;2023-02-23T06:34:45;12.03;;;4.23;;
71413;SDS011;59226;53.212;5.728;2023-02-23T06:37:11;9.17;;;4.73;;
71413;SDS011;59226;53.212;5.728;2023-02-23T06:39:36;10.87;;;3.83;;
71413;SDS011;59226;53.212;5.728;2023-02-23T06:42:01;6.90;;;4.17;;
71413;SDS011;59226;53.212;5.728;2023-02-23T06:44:26;10.33;;;5.17;;
71413;SDS011;59226;53.212;5.728;2023-02-23T06:46:52;15.17;;;5.53;;
71413;SDS011;59226;53.212;5.728;2023-02-23T06:49:17;11.85;;;5.30;;
71413;SDS011;59226;53.212;5.728;2023-02-23T06:51:42;11.60;;;4.53;;
71413;SDS011;59226;53.212;5.728;2023-02-23T06:54:08;11.43;;;4.83;;
71413;SDS011;59226;53.212;5.728;2023-02-23T06:56:33;18.77;;;6.30;;
71413;SDS011;59226;53.212;5.728;2023-02-23T06:58:58;14.40;;;4.97;;
71413;SDS011;59226;53.212;5.728;2023-02-23T07:01:23;11.00;;;4.37;;
71413;SDS011;59226;53.212;5.728;2023-02-23T07:03:48;10.97;;;4.03;;
71413;SDS011;59226;53.212;5.728;2023-02-23T07:06:14;20.83;;;4.87;;
71413;SDS011;59226;53.212;5.728;2023-02-23T07:08:39;14.10;;;4.93;;
71413;SDS011;59226;53.212;5.728;2023-02-23T07:11:13;9.40;;;4.20;;
71413;SDS011;59226;53.212;5.728;2023-02-23T07:13:39;16.75;;;5.78;;
71413;SDS011;59226;53.212;5.728;2023-02-23T07:16:05;9.47;;;3.77;;
71413;SDS011;59226;53.212;5.728;2023-02-23T07:18:31;8.57;;;4.55;;
71413;SDS011;59226;53.212;5.728;2023-02-23T07:20:56;9.97;;;2.70;;
71413;SDS011;59226;53.212;5.728;2023-02-23T07:23:22;10.18;;;4.72;;
71413;SDS011;59226;53.212;5.728;2023-02-23T07:25:50;9.30;;;3.37;;
71413;SDS011;59226;53.212;5.728;2023-02-23T07:28:16;11.45;;;5.00;;
71413;SDS011;59226;53.212;5.728;2023-02-23T07:30:41;12.60;;;4.50;;
71413;SDS011;59226;53.212;5.728;2023-02-23T07:33:06;7.60;;;2.67;;
71413;SDS011;59226;53.212;5.728;2023-02-23T07:35:32;15.10;;;5.70;;
71413;SDS011;59226;53.212;5.728;2023-02-23T07:37:57;9.03;;;4.27;;
71413;SDS011;59226;53.212;5.728;2023-02-23T07:40:22;13.17;;;4.07;;
71413;SDS011;59226;53.212;5.728;2023-02-23T07:42:48;10.20;;;4.23;;
71413;SDS011;59226;53.212;5.728;2023-02-23T07:45:13;7.20;;;3.33;;
71413;SDS011;59226;53.212;5.728;2023-02-23T07:47:38;12.00;;;5.63;;
71413;SDS011;59226;53.212;5.728;2023-02-23T07:50:04;15.03;;;4.83;;
71413;SDS011;59226;53.212;5.728;2023-02-23T07:52:36;12.80;;;4.60;;
71413;SDS011;59226;53.212;5.728;2023-02-23T07:55:02;5.73;;;3.43;;
71413;SDS011;59226;53.212;5.728;2023-02-23T07:57:27;10.80;;;4.88;;
71413;SDS011;59226;53.212;5.728;2023-02-23T07:59:53;14.63;;;5.13;;
71413;SDS011;59226;53.212;5.728;2023-02-23T08:02:18;10.63;;;4.43;;
71413;SDS011;59226;53.212;5.728;2023-02-23T08:04:43;17.60;;;6.00;;
71413;SDS011;59226;53.212;5.728;2023-02-23T08:07:09;14.10;;;4.77;;
71413;SDS011;59226;53.212;5.728;2023-02-23T08:09:34;12.90;;;4.45;;
71413;SDS011;59226;53.212;5.728;2023-02-23T08:12:00;12.40;;;4.70;;
71413;SDS011;59226;53.212;5.728;2023-02-23T08:14:26;14.23;;;5.55;;
71413;SDS011;59226;53.212;5.728;2023-02-23T08:16:51;11.80;;;5.17;;
71413;SDS011;59226;53.212;5.728;2023-02-23T08:19:16;14.97;;;5.23;;
71413;SDS011;59226;53.212;5.728;2023-02-23T08:21:42;12.13;;;4.93;;
71413;SDS011;59226;53.212;5.728;2023-02-23T08:24:07;20.70;;;5.13;;
71413;SDS011;59226;53.212;5.728;2023-02-23T08:26:34;14.80;;;4.33;;
71413;SDS011;59226;53.212;5.728;2023-02-23T08:28:59;19.38;;;8.02;;
71413;SDS011;59226;53.212;5.728;2023-02-23T08:31:24;16.90;;;6.17;;
71413;SDS011;59226;53.212;5.728;2023-02-23T08:33:51;8.55;;;3.85;;
71413;SDS011;59226;53.212;5.728;2023-02-23T08:36:17;10.20;;;4.40;;
71413;SDS011;59226;53.212;5.728;2023-02-23T08:38:42;10.77;;;3.70;;
71413;SDS011;59226;53.212;5.728;2023-02-23T08:41:07;14.73;;;4.90;;
71413;SDS011;59226;53.212;5.728;2023-02-23T08:43:32;12.43;;;4.83;;
71413;SDS011;59226;53.212;5.728;2023-02-23T08:45:58;14.47;;;5.27;;
71413;SDS011;59226;53.212;5.728;2023-02-23T08:48:23;14.60;;;4.37;;
71413;SDS011;59226;53.212;5.728;2023-02-23T08:50:49;8.70;;;3.30;;
71413;SDS011;59226;53.212;5.728;2023-02-23T08:53:17;5.60;;;2.50;;
71413;SDS011;59226;53.212;5.728;2023-02-23T08:55:43;7.65;;;2.80;;
71413;SDS011;59226;53.212;5.728;2023-02-23T08:58:08;12.87;;;4.77;;
71413;SDS011;59226;53.212;5.728;2023-02-23T09:00:35;15.47;;;5.17;;
71413;SDS011;59226;53.212;5.728;2023-02-23T09:03:00;17.25;;;6.53;;
71413;SDS011;59226;53.212;5.728;2023-02-23T09:05:25;16.13;;;6.60;;
71413;SDS011;59226;53.212;5.728;2023-02-23T09:07:50;18.77;;;7.33;;
71413;SDS011;59226;53.212;5.728;2023-02-23T09:10:17;11.77;;;5.67;;
71413;SDS011;59226;53.212;5.728;2023-02-23T09:12:43;15.38;;;3.88;;
71413;SDS011;59226;53.212;5.728;2023-02-23T09:15:09;7.57;;;3.37;;
71413;SDS011;59226;53.212;5.728;2023-02-23T09:17:34;14.97;;;4.70;;
71413;SDS011;59226;53.212;5.728;2023-02-23T09:19:59;14.57;;;4.60;;
71413;SDS011;59226;53.212;5.728;2023-02-23T09:22:26;8.02;;;4.10;;
71413;SDS011;59226;53.212;5.728;2023-02-23T09:24:51;5.67;;;2.40;;
71413;SDS011;59226;53.212;5.728;2023-02-23T09:27:16;11.17;;;4.13;;
71413;SDS011;59226;53.212;5.728;2023-02-23T09:29:41;9.10;;;2.63;;
71413;SDS011;59226;53.212;5.728;2023-02-23T09:32:08;6.10;;;2.55;;
71413;SDS011;59226;53.212;5.728;2023-02-23T09:34:33;15.07;;;4.77;;
71413;SDS011;59226;53.212;5.728;2023-02-23T09:37:00;8.07;;;4.97;;
71413;SDS011;59226;53.212;5.728;2023-02-23T09:39:25;6.75;;;2.88;;
71413;SDS011;59226;53.212;5.728;2023-02-23T09:49:44;10.53;;;3.53;;
71413;SDS011;59226;53.212;5.728;2023-02-23T09:52:15;17.27;;;5.18;;
71413;SDS011;59226;53.212;5.728;2023-02-23T09:54:41;17.52;;;6.45;;
71413;SDS011;59226;53.212;5.728;2023-02-23T09:57:09;3.07;;;1.83;;
71413;SDS011;59226;53.212;5.728;2023-02-23T09:59:36;15.80;;;6.32;;
71413;SDS011;59226;53.212;5.728;2023-02-23T10:04:35;9.88;;;3.97;;
71413;SDS011;59226;53.212;5.728;2023-02-23T10:07:08;22.83;;;6.95;;
71413;SDS011;59226;53.212;5.728;2023-02-23T10:12:12;13.93;;;6.03;;
71413;SDS011;59226;53.212;5.728;2023-02-23T10:22:13;18.75;;;6.20;;
71413;SDS011;59226;53.212;5.728;2023-02-23T10:24:44;21.50;;;9.63;;
71413;SDS011;59226;53.212;5.728;2023-02-23T10:27:15;12.88;;;5.20;;
71413;SDS011;59226;53.212;5.728;2023-02-23T10:29:47;17.10;;;6.65;;
71413;SDS011;59226;53.212;5.728;2023-02-23T10:32:26;21.13;;;6.30;;
71413;SDS011;59226;53.212;5.728;2023-02-23T10:34:53;16.63;;;7.72;;
71413;SDS011;59226;53.212;5.728;2023-02-23T10:37:20;10.27;;;4.43;;
71413;SDS011;59226;53.212;5.728;2023-02-23T10:39:46;9.00;;;2.15;;
71413;SDS011;59226;53.212;5.728;2023-02-23T10:42:14;25.20;;;4.63;;
71413;SDS011;59226;53.212;5.728;2023-02-23T10:44:44;28.45;;;6.15;;
71413;SDS011;59226;53.212;5.728;2023-02-23T10:47:13;11.55;;;4.35;;
71413;SDS011;59226;53.212;5.728;2023-02-23T10:52:07;6.90;;;2.77;;
71413;SDS011;59226;53.212;5.728;2023-02-23T10:57:00;34.47;;;9.65;;
71413;SDS011;59226;53.212;5.728;2023-02-23T10:59:26;16.42;;;5.60;;
71413;SDS011;59226;53.212;5.728;2023-02-23T11:01:52;21.00;;;7.27;;
71413;SDS011;59226;53.212;5.728;2023-02-23T11:04:19;13.70;;;6.00;;
71413;SDS011;59226;53.212;5.728;2023-02-23T11:06:46;17.07;;;6.17;;
71413;SDS011;59226;53.212;5.728;2023-02-23T11:09:21;7.10;;;3.90;;
71413;SDS011;59226;53.212;5.728;2023-02-23T11:14:22;13.80;;;3.15;;
71413;SDS011;59226;53.212;5.728;2023-02-23T11:16:48;8.70;;;2.25;;
71413;SDS011;59226;53.212;5.728;2023-02-23T11:19:19;9.00;;;3.23;;
71413;SDS011;59226;53.212;5.728;2023-02-23T11:21:49;17.42;;;5.63;;
71413;SDS011;59226;53.212;5.728;2023-02-23T11:26:40;3.50;;;1.67;;
71413;SDS011;59226;53.212;5.728;2023-02-23T11:29:20;3.67;;;1.67;;
71413;SDS011;59226;53.212;5.728;2023-02-23T11:31:51;0.50;;;0.40;;
71413;SDS011;59226;53.212;5.728;2023-02-23T11:34:31;2.27;;;0.50;;
71413;SDS011;59226;53.212;5.728;2023-02-23T11:36:58;1.02;;;0.50;;
71413;SDS011;59226;53.212;5.728;2023-02-23T11:39:24;0.80;;;0.45;;
71413;SDS011;59226;53.212;5.728;2023-02-23T11:44:33;0.57;;;0.20;;
71413;SDS011;59226;53.212;5.728;2023-02-23T11:46:58;3.20;;;0.97;;
71413;SDS011;59226;53.212;5.728;2023-02-23T11:49:29;0.40;;;0.20;;
71413;SDS011;59226;53.212;5.728;2023-02-23T11:51:57;0.20;;;0.20;;
71413;SDS011;59226;53.212;5.728;2023-02-23T11:56:51;0.63;;;0.22;;
71413;SDS011;59226;53.212;5.728;2023-02-23T11:59:20;0.20;;;0.10;;
71413;SDS011;59226;53.212;5.728;2023-02-23T12:01:48;0.20;;;0.20;;
71413;SDS011;59226;53.212;5.728;2023-02-23T12:09:41;0.47;;;0.30;;
71413;SDS011;59226;53.212;5.728;2023-02-23T12:12:10;4.35;;;0.50;;
71413;SDS011;59226;53.212;5.728;2023-02-23T12:14:40;3.63;;;0.38;;
71413;SDS011;59226;53.212;5.728;2023-02-23T12:17:11;5.20;;;0.73;;
71413;SDS011;59226;53.212;5.728;2023-02-23T12:19:40;4.10;;;1.42;;
71413;SDS011;59226;53.212;5.728;2023-02-23T12:22:12;6.20;;;0.68;;
71413;SDS011;59226;53.212;5.728;2023-02-23T12:27:38;0.88;;;0.32;;
71413;SDS011;59226;53.212;5.728;2023-02-23T12:37:33;5.45;;;0.93;;
71413;SDS011;59226;53.212;5.728;2023-02-23T12:40:14;0.55;;;0.28;;
71413;SDS011;59226;53.212;5.728;2023-02-23T12:42:48;1.27;;;0.43;;
71413;SDS011;59226;53.212;5.728;2023-02-23T12:45:27;1.65;;;0.57;;
71413;SDS011;59226;53.212;5.728;2023-02-23T12:52:54;0.53;;;0.20;;
71413;SDS011;59226;53.212;5.728;2023-02-23T13:00:42;2.65;;;0.85;;
71413;SDS011;59226;53.212;5.728;2023-02-23T13:05:36;3.40;;;0.60;;
71413;SDS011;59226;53.212;5.728;2023-02-23T13:13:22;0.90;;;0.40;;
71413;SDS011;59226;53.212;5.728;2023-02-23T13:28:56;6.73;;;1.10;;
71413;SDS011;59226;53.212;5.728;2023-02-23T13:31:25;3.77;;;0.63;;
71413;SDS011;59226;53.212;5.728;2023-02-23T13:33:53;1.92;;;0.63;;
71413;SDS011;59226;53.212;5.728;2023-02-23T13:36:19;3.15;;;0.90;;
71413;SDS011;59226;53.212;5.728;2023-02-23T13:38:51;0.77;;;0.40;;
71413;SDS011;59226;53.212;5.728;2023-02-23T13:41:32;3.33;;;0.82;;
71413;SDS011;59226;53.212;5.728;2023-02-23T13:51:58;3.15;;;0.35;;
71413;SDS011;59226;53.212;5.728;2023-02-23T13:54:29;26.27;;;1.50;;
71413;SDS011;59226;53.212;5.728;2023-02-23T13:56:56;3.47;;;0.73;;
71413;SDS011;59226;53.212;5.728;2023-02-23T13:59:24;1.05;;;0.50;;
71413;SDS011;59226;53.212;5.728;2023-02-23T14:01:53;1.45;;;0.30;;
71413;SDS011;59226;53.212;5.728;2023-02-23T14:04:23;2.97;;;0.50;;
71413;SDS011;59226;53.212;5.728;2023-02-23T14:06:53;2.60;;;1.00;;
71413;SDS011;59226;53.212;5.728;2023-02-23T14:09:21;7.38;;;0.95;;
71413;SDS011;59226;53.212;5.728;2023-02-23T14:11:51;2.05;;;0.40;;
71413;SDS011;59226;53.212;5.728;2023-02-23T14:19:43;9.50;;;0.83;;
71413;SDS011;59226;53.212;5.728;2023-02-23T14:22:12;0.52;;;0.20;;
71413;SDS011;59226;53.212;5.728;2023-02-23T14:24:38;1.58;;;0.30;;
71413;SDS011;59226;53.212;5.728;2023-02-23T14:27:04;4.87;;;0.77;;
71413;SDS011;59226;53.212;5.728;2023-02-23T14:29:39;1.10;;;0.52;;
71413;SDS011;59226;53.212;5.728;2023-02-23T14:37:18;0.20;;;0.20;;
71413;SDS011;59226;53.212;5.728;2023-02-23T14:39:47;3.42;;;1.05;;
71413;SDS011;59226;53.212;5.728;2023-02-23T14:42:26;8.13;;;0.70;;
71413;SDS011;59226;53.212;5.728;2023-02-23T14:44:52;1.35;;;0.30;;
71413;SDS011;59226;53.212;5.728;2023-02-23T14:47:21;5.00;;;0.50;;
71413;SDS011;59226;53.212;5.728;2023-02-23T14:49:49;0.75;;;0.50;;
71413;SDS011;59226;53.212;5.728;2023-02-23T14:52:18;7.90;;;0.80;;
71413;SDS011;59226;53.212;5.728;2023-02-23T14:54:45;5.50;;;1.08;;
71413;SDS011;59226;53.212;5.728;2023-02-23T14:59:45;1.05;;;0.47;;
71413;SDS011;59226;53.212;5.728;2023-02-23T15:02:24;0.97;;;0.40;;
71413;SDS011;59226;53.212;5.728;2023-02-23T15:04:50;0.80;;;0.30;;
71413;SDS011;59226;53.212;5.728;2023-02-23T15:07:19;2.00;;;0.20;;
71413;SDS011;59226;53.212;5.728;2023-02-23T15:09:48;0.20;;;0.20;;
71413;SDS011;59226;53.212;5.728;2023-02-23T15:12:15;0.50;;;0.28;;
71413;SDS011;59226;53.212;5.728;2023-02-23T15:14:42;0.57;;;0.20;;
71413;SDS011;59226;53.212;5.728;2023-02-23T15:17:11;0.43;;;0.23;;
71413;SDS011;59226;53.212;5.728;2023-02-23T15:19:37;0.38;;;0.20;;
71413;SDS011;59226;53.212;5.728;2023-02-23T15:22:03;0.60;;;0.28;;
71413;SDS011;59226;53.212;5.728;2023-02-23T15:24:31;0.40;;;0.30;;
71413;SDS011;59226;53.212;5.728;2023-02-23T15:26:56;5.97;;;0.50;;
71413;SDS011;59226;53.212;5.728;2023-02-23T15:29:23;0.30;;;0.30;;
71413;SDS011;59226;53.212;5.728;2023-02-23T15:31:52;0.20;;;0.20;;
71413;SDS011;59226;53.212;5.728;2023-02-23T15:36:45;0.82;;;0.30;;
71413;SDS011;59226;53.212;5.728;2023-02-23T15:39:13;0.53;;;0.40;;
71413;SDS011;59226;53.212;5.728;2023-02-23T15:41:40;1.85;;;0.35;;
71413;SDS011;59226;53.212;5.728;2023-02-23T15:44:10;1.23;;;0.45;;
71413;SDS011;59226;53.212;5.728;2023-02-23T15:46:36;6.72;;;0.60;;
71413;SDS011;59226;53.212;5.728;2023-02-23T15:49:02;0.60;;;0.20;;
71413;SDS011;59226;53.212;5.728;2023-02-23T15:51:36;0.20;;;0.20;;
71413;SDS011;59226;53.212;5.728;2023-02-23T15:54:06;1.15;;;0.40;;
71413;SDS011;59226;53.212;5.728;2023-02-23T15:56:37;0.57;;;0.22;;
71413;SDS011;59226;53.212;5.728;2023-02-23T15:59:10;0.83;;;0.30;;
71413;SDS011;59226;53.212;5.728;2023-02-23T16:01:40;0.35;;;0.20;;
71413;SDS011;59226;53.212;5.728;2023-02-23T16:08:58;1.17;;;0.60;;
71413;SDS011;59226;53.212;5.728;2023-02-23T16:11:23;1.17;;;0.30;;
71413;SDS011;59226;53.212;5.728;2023-02-23T16:13:49;1.00;;;0.40;;
71413;SDS011;59226;53.212;5.728;2023-02-23T16:16:15;1.53;;;1.43;;
71413;SDS011;59226;53.212;5.728;2023-02-23T16:18:44;5.18;;;0.63;;
71413;SDS011;59226;53.212;5.728;2023-02-23T16:21:13;1.38;;;0.17;;
71413;SDS011;59226;53.212;5.728;2023-02-23T16:23:41;0.85;;;0.52;;
71413;SDS011;59226;53.212;5.728;2023-02-23T16:26:09;1.75;;;1.02;;
71413;SDS011;59226;53.212;5.728;2023-02-23T16:28:35;0.27;;;0.23;;
71413;SDS011;59226;53.212;5.728;2023-02-23T16:31:05;0.40;;;0.40;;
71413;SDS011;59226;53.212;5.728;2023-02-23T16:33:44;0.47;;;0.28;;
71413;SDS011;59226;53.212;5.728;2023-02-23T16:36:18;0.60;;;0.40;;
71413;SDS011;59226;53.212;5.728;2023-02-23T16:41:19;1.20;;;0.20;;
71413;SDS011;59226;53.212;5.728;2023-02-23T16:43:49;0.10;;;0.10;;
71413;SDS011;59226;53.212;5.728;2023-02-23T16:46:15;1.05;;;0.38;;
71413;SDS011;59226;53.212;5.728;2023-02-23T16:48:41;0.45;;;0.20;;
71413;SDS011;59226;53.212;5.728;2023-02-23T16:51:19;0.67;;;0.30;;
71413;SDS011;59226;53.212;5.728;2023-02-23T16:53:47;0.17;;;0.10;;
71413;SDS011;59226;53.212;5.728;2023-02-23T16:56:17;1.50;;;0.40;;
71413;SDS011;59226;53.212;5.728;2023-02-23T16:58:44;0.50;;;0.40;;
71413;SDS011;59226;53.212;5.728;2023-02-23T17:01:13;0.30;;;0.20;;
71413;SDS011;59226;53.212;5.728;2023-02-23T17:03:38;0.30;;;0.20;;
71413;SDS011;59226;53.212;5.728;2023-02-23T17:06:04;0.93;;;0.13;;
71413;SDS011;59226;53.212;5.728;2023-02-23T17:08:29;0.75;;;0.20;;
71413;SDS011;59226;53.212;5.728;2023-02-23T17:10:55;0.20;;;0.10;;
71413;SDS011;59226;53.212;5.728;2023-02-23T17:13:24;0.43;;;0.17;;
71413;SDS011;59226;53.212;5.728;2023-02-23T17:15:50;2.53;;;0.73;;
71413;SDS011;59226;53.212;5.728;2023-02-23T17:18:17;0.23;;;0.13;;
71413;SDS011;59226;53.212;5.728;2023-02-23T17:20:43;0.10;;;0.10;;
71413;SDS011;59226;53.212;5.728;2023-02-23T17:23:09;0.20;;;0.10;;
71413;SDS011;59226;53.212;5.728;2023-02-23T17:25:34;2.63;;;0.77;;
71413;SDS011;59226;53.212;5.728;2023-02-23T17:27:59;2.93;;;0.90;;